sensor_id;sensor_type;location;lat;lon;timestamp;P1;P2;P0
35654;PMS1003;21773;50.010;19.972;2023-04-16T00:02:55;32.60;30.00;23.00
35654;PMS1003;21773;50.010;19.972;2023-04-16T00:05:59;37.00;31.00;24.00
35654;PMS1003;21773;50.010;19.972;2023-04-16T00:09:02;31.80;29.60;22.60
35654;PMS1003;21773;50.010;19.972;2023-04-16T00:12:07;34.80;31.60;23.80
35654;PMS1003;21773;50.010;19.972;2023-04-16T00:15:10;33.00;31.00;24.00
35654;PMS1003;21773;50.010;19.972;2023-04-16T00:18:14;34.20;31.80;24.00
35654;PMS1003;21773;50.010;19.972;2023-04-16T00:21:17;36.20;32.00;25.00
35654;PMS1003;21773;50.010;19.972;2023-04-16T00:24:20;37.00;32.00;24.60
35654;PMS1003;21773;50.010;19.972;2023-04-16T00:27:25;39.60;34.40;27.00
35654;PMS1003;21773;50.010;19.972;2023-04-16T00:30:28;33.80;30.80;24.00
35654;PMS1003;21773;50.010;19.972;2023-04-16T00:33:32;37.20;32.20;25.60
35654;PMS1003;21773;50.010;19.972;2023-04-16T00:36:36;35.00;31.00;25.00
35654;PMS1003;21773;50.010;19.972;2023-04-16T00:39:39;37.00;32.00;24.00
35654;PMS1003;21773;50.010;19.972;2023-04-16T00:42:44;30.60;29.60;23.00
35654;PMS1003;21773;50.010;19.972;2023-04-16T00:45:47;32.60;30.60;24.60
35654;PMS1003;21773;50.010;19.972;2023-04-16T00:48:53;32.00;29.00;23.00
35654;PMS1003;21773;50.010;19.972;2023-04-16T00:51:57;32.00;27.80;22.00
35654;PMS1003;21773;50.010;19.972;2023-04-16T00:55:03;31.80;29.20;22.00
35654;PMS1003;21773;50.010;19.972;2023-04-16T00:58:10;28.20;26.60;22.00
35654;PMS1003;21773;50.010;19.972;2023-04-16T01:01:14;25.50;24.00;20.00
35654;PMS1003;21773;50.010;19.972;2023-04-16T01:04:18;30.40;29.00;23.00
35654;PMS1003;21773;50.010;19.972;2023-04-16T01:07:21;27.00;24.00;20.00
35654;PMS1003;21773;50.010;19.972;2023-04-16T01:10:25;24.33;21.33;20.00
35654;PMS1003;21773;50.010;19.972;2023-04-16T01:13:30;22.20;22.00;19.00
35654;PMS1003;21773;50.010;19.972;2023-04-16T01:16:34;21.00;20.20;17.80
35654;PMS1003;21773;50.010;19.972;2023-04-16T01:19:37;24.50;23.00;20.00
35654;PMS1003;21773;50.010;19.972;2023-04-16T01:22:42;22.20;20.60;17.00
35654;PMS1003;21773;50.010;19.972;2023-04-16T01:25:45;22.00;20.25;18.25
35654;PMS1003;21773;50.010;19.972;2023-04-16T01:28:49;20.00;18.40;16.00
35654;PMS1003;21773;50.010;19.972;2023-04-16T01:31:52;22.67;20.67;19.00
35654;PMS1003;21773;50.010;19.972;2023-04-16T01:34:59;18.60;18.00;15.00
35654;PMS1003;21773;50.010;19.972;2023-04-16T01:38:04;19.40;17.00;16.00
35654;PMS1003;21773;50.010;19.972;2023-04-16T01:41:08;18.40;18.40;16.40
35654;PMS1003;21773;50.010;19.972;2023-04-16T01:44:12;21.00;19.60;17.00
35654;PMS1003;21773;50.010;19.972;2023-04-16T01:47:16;20.80;19.00;16.00
35654;PMS1003;21773;50.010;19.972;2023-04-16T01:50:19;19.50;18.00;16.00
35654;PMS1003;21773;50.010;19.972;2023-04-16T01:53:24;18.00;18.00;16.00
35654;PMS1003;21773;50.010;19.972;2023-04-16T01:56:28;23.00;19.50;18.00
35654;PMS1003;21773;50.010;19.972;2023-04-16T01:59:31;24.80;21.00;19.20
35654;PMS1003;21773;50.010;19.972;2023-04-16T02:02:34;16.60;16.00;14.60
35654;PMS1003;21773;50.010;19.972;2023-04-16T02:05:38;19.00;18.00;15.20
35654;PMS1003;21773;50.010;19.972;2023-04-16T02:08:43;17.00;17.00;15.00
35654;PMS1003;21773;50.010;19.972;2023-04-16T02:11:48;21.00;19.00;17.25
35654;PMS1003;21773;50.010;19.972;2023-04-16T02:14:51;17.40;16.00;13.20
35654;PMS1003;21773;50.010;19.972;2023-04-16T02:17:56;19.00;17.40;15.00
35654;PMS1003;21773;50.010;19.972;2023-04-16T02:20:59;23.50;20.50;18.50
35654;PMS1003;21773;50.010;19.972;2023-04-16T02:24:04;24.60;21.00;18.60
35654;PMS1003;21773;50.010;19.972;2023-04-16T02:27:08;21.00;18.80;16.00
35654;PMS1003;21773;50.010;19.972;2023-04-16T02:30:12;25.00;22.00;19.00
35654;PMS1003;21773;50.010;19.972;2023-04-16T02:33:15;21.60;21.00;18.00
35654;PMS1003;21773;50.010;19.972;2023-04-16T02:36:28;20.00;18.50;16.00
35654;PMS1003;21773;50.010;19.972;2023-04-16T02:39:34;22.00;21.80;18.00
35654;PMS1003;21773;50.010;19.972;2023-04-16T02:42:37;22.75;22.00;19.00
35654;PMS1003;21773;50.010;19.972;2023-04-16T02:45:41;23.00;21.80;19.00
35654;PMS1003;21773;50.010;19.972;2023-04-16T02:48:45;23.40;21.40;20.00
35654;PMS1003;21773;50.010;19.972;2023-04-16T02:51:48;22.40;21.00;18.40
35654;PMS1003;21773;50.010;19.972;2023-04-16T02:54:53;24.00;24.00;20.00
35654;PMS1003;21773;50.010;19.972;2023-04-16T02:57:56;26.40;24.40;20.00
35654;PMS1003;21773;50.010;19.972;2023-04-16T03:01:00;25.00;23.00;20.00
35654;PMS1003;21773;50.010;19.972;2023-04-16T03:04:03;22.25;20.00;17.75
35654;PMS1003;21773;50.010;19.972;2023-04-16T03:07:07;25.50;23.00;20.00
35654;PMS1003;21773;50.010;19.972;2023-04-16T03:10:13;25.20;23.00;19.20
35654;PMS1003;21773;50.010;19.972;2023-04-16T03:13:16;24.00;21.00;18.40
35654;PMS1003;21773;50.010;19.972;2023-04-16T03:16:19;22.00;21.00;18.00
35654;PMS1003;21773;50.010;19.972;2023-04-16T03:19:23;26.80;24.40;20.00
35654;PMS1003;21773;50.010;19.972;2023-04-16T03:22:26;28.00;23.40;20.00
35654;PMS1003;21773;50.010;19.972;2023-04-16T03:25:31;25.00;24.00;21.00
35654;PMS1003;21773;50.010;19.972;2023-04-16T03:28:34;26.80;24.20;20.00
35654;PMS1003;21773;50.010;19.972;2023-04-16T03:31:37;25.80;24.00;20.00
35654;PMS1003;21773;50.010;19.972;2023-04-16T03:34:42;29.00;26.50;20.00
35654;PMS1003;21773;50.010;19.972;2023-04-16T03:37:45;27.80;24.80;21.00
35654;PMS1003;21773;50.010;19.972;2023-04-16T03:40:50;25.00;21.60;18.40
35654;PMS1003;21773;50.010;19.972;2023-04-16T03:43:53;22.60;21.00;17.20
35654;PMS1003;21773;50.010;19.972;2023-04-16T03:46:56;23.20;21.20;18.20
35654;PMS1003;21773;50.010;19.972;2023-04-16T03:50:00;24.00;22.00;19.00
35654;PMS1003;21773;50.010;19.972;2023-04-16T03:53:03;18.60;17.00;15.00
35654;PMS1003;21773;50.010;19.972;2023-04-16T03:56:09;21.60;19.60;17.20
35654;PMS1003;21773;50.010;19.972;2023-04-16T03:59:12;21.60;20.00;18.00
35654;PMS1003;21773;50.010;19.972;2023-04-16T04:02:15;24.80;22.80;19.20
35654;PMS1003;21773;50.010;19.972;2023-04-16T04:05:19;17.40;16.40;16.00
35654;PMS1003;21773;50.010;19.972;2023-04-16T04:08:23;23.80;21.00;18.40
35654;PMS1003;21773;50.010;19.972;2023-04-16T04:11:29;25.40;24.40;20.00
35654;PMS1003;21773;50.010;19.972;2023-04-16T04:14:32;23.80;21.80;19.00
35654;PMS1003;21773;50.010;19.972;2023-04-16T04:17:41;23.00;21.00;19.00
35654;PMS1003;21773;50.010;19.972;2023-04-16T04:20:44;26.00;21.40;19.00
35654;PMS1003;21773;50.010;19.972;2023-04-16T04:23:50;20.00;18.00;16.00
35654;PMS1003;21773;50.010;19.972;2023-04-16T04:26:58;23.80;20.00;17.60
35654;PMS1003;21773;50.010;19.972;2023-04-16T04:30:02;19.75;18.00;16.00
35654;PMS1003;21773;50.010;19.972;2023-04-16T04:33:07;19.00;18.00;16.00
35654;PMS1003;21773;50.010;19.972;2023-04-16T04:36:11;18.60;17.00;15.00
35654;PMS1003;21773;50.010;19.972;2023-04-16T04:39:15;13.40;13.00;11.80
35654;PMS1003;21773;50.010;19.972;2023-04-16T04:42:24;14.00;12.67;10.67
35654;PMS1003;21773;50.010;19.972;2023-04-16T04:45:28;13.60;11.80;10.00
35654;PMS1003;21773;50.010;19.972;2023-04-16T04:48:33;14.00;14.00;13.00
35654;PMS1003;21773;50.010;19.972;2023-04-16T04:51:36;17.00;15.00;14.00
35654;PMS1003;21773;50.010;19.972;2023-04-16T04:54:39;13.00;13.00;11.00
35654;PMS1003;21773;50.010;19.972;2023-04-16T04:57:44;14.60;12.80;10.80
35654;PMS1003;21773;50.010;19.972;2023-04-16T05:00:48;13.60;13.20;11.20
35654;PMS1003;21773;50.010;19.972;2023-04-16T05:03:51;13.00;11.25;10.00
35654;PMS1003;21773;50.010;19.972;2023-04-16T05:06:54;14.00;13.40;12.40
35654;PMS1003;21773;50.010;19.972;2023-04-16T05:09:58;11.00;10.00;9.00
35654;PMS1003;21773;50.010;19.972;2023-04-16T05:13:02;10.00;10.00;8.00
35654;PMS1003;21773;50.010;19.972;2023-04-16T05:16:06;12.00;11.40;10.00
35654;PMS1003;21773;50.010;19.972;2023-04-16T05:19:10;13.60;11.60;10.00
35654;PMS1003;21773;50.010;19.972;2023-04-16T05:22:13;8.80;7.80;7.00
35654;PMS1003;21773;50.010;19.972;2023-04-16T05:25:19;11.60;11.00;9.00
35654;PMS1003;21773;50.010;19.972;2023-04-16T05:28:24;12.00;10.00;9.00
35654;PMS1003;21773;50.010;19.972;2023-04-16T05:31:28;8.00;8.00;7.40
35654;PMS1003;21773;50.010;19.972;2023-04-16T05:34:31;11.00;10.00;9.00
35654;PMS1003;21773;50.010;19.972;2023-04-16T05:37:34;11.00;10.00;9.60
35654;PMS1003;21773;50.010;19.972;2023-04-16T05:40:37;9.25;9.00;7.25
35654;PMS1003;21773;50.010;19.972;2023-04-16T05:43:42;14.00;12.00;10.50
35654;PMS1003;21773;50.010;19.972;2023-04-16T05:46:45;11.25;11.00;10.00
35654;PMS1003;21773;50.010;19.972;2023-04-16T05:49:49;10.00;9.00;8.00
35654;PMS1003;21773;50.010;19.972;2023-04-16T05:52:52;9.60;9.60;8.60
35654;PMS1003;21773;50.010;19.972;2023-04-16T05:55:55;14.00;13.00;12.00
35654;PMS1003;21773;50.010;19.972;2023-04-16T05:59:00;17.00;16.00;13.40
35654;PMS1003;21773;50.010;19.972;2023-04-16T06:02:04;13.60;12.00;11.00
35654;PMS1003;21773;50.010;19.972;2023-04-16T06:05:07;15.00;13.00;11.00
35654;PMS1003;21773;50.010;19.972;2023-04-16T06:08:10;13.00;12.40;10.60
35654;PMS1003;21773;50.010;19.972;2023-04-16T06:11:14;13.00;12.80;11.80
35654;PMS1003;21773;50.010;19.972;2023-04-16T06:14:19;14.00;13.00;12.00
35654;PMS1003;21773;50.010;19.972;2023-04-16T06:17:22;12.00;11.40;10.00
35654;PMS1003;21773;50.010;19.972;2023-04-16T06:20:25;12.25;12.00;11.00
35654;PMS1003;21773;50.010;19.972;2023-04-16T06:23:29;14.40;13.00;12.00
35654;PMS1003;21773;50.010;19.972;2023-04-16T06:26:32;12.00;11.40;10.00
35654;PMS1003;21773;50.010;19.972;2023-04-16T06:29:37;11.00;10.00;9.00
35654;PMS1003;21773;50.010;19.972;2023-04-16T06:32:42;14.25;12.25;10.25
35654;PMS1003;21773;50.010;19.972;2023-04-16T06:35:47;10.00;10.00;8.20
35654;PMS1003;21773;50.010;19.972;2023-04-16T06:38:50;12.20;11.80;10.80
35654;PMS1003;21773;50.010;19.972;2023-04-16T06:41:53;13.00;11.20;10.20
35654;PMS1003;21773;50.010;19.972;2023-04-16T06:44:58;14.00;12.40;11.40
35654;PMS1003;21773;50.010;19.972;2023-04-16T06:48:02;14.75;14.75;13.00
35654;PMS1003;21773;50.010;19.972;2023-04-16T06:51:05;16.33;15.33;13.33
35654;PMS1003;21773;50.010;19.972;2023-04-16T06:54:09;16.00;15.00;13.40
35654;PMS1003;21773;50.010;19.972;2023-04-16T06:57:12;14.60;14.60;12.60
35654;PMS1003;21773;50.010;19.972;2023-04-16T07:00:17;16.00;14.00;13.00
35654;PMS1003;21773;50.010;19.972;2023-04-16T07:03:21;17.00;15.00;13.40
35654;PMS1003;21773;50.010;19.972;2023-04-16T07:06:25;19.60;17.60;15.60
35654;PMS1003;21773;50.010;19.972;2023-04-16T07:09:28;16.50;15.00;13.50
35654;PMS1003;21773;50.010;19.972;2023-04-16T07:12:32;15.00;13.00;12.00
35654;PMS1003;21773;50.010;19.972;2023-04-16T07:15:36;14.00;13.00;11.00
35654;PMS1003;21773;50.010;19.972;2023-04-16T07:18:39;15.40;14.00;12.00
35654;PMS1003;21773;50.010;19.972;2023-04-16T07:21:43;15.40;14.00;12.00
35654;PMS1003;21773;50.010;19.972;2023-04-16T07:24:46;16.00;15.00;14.00
35654;PMS1003;21773;50.010;19.972;2023-04-16T07:27:50;17.00;16.80;14.40
35654;PMS1003;21773;50.010;19.972;2023-04-16T07:30:55;16.00;16.00;13.00
35654;PMS1003;21773;50.010;19.972;2023-04-16T07:33:58;18.00;15.00;13.00
35654;PMS1003;21773;50.010;19.972;2023-04-16T07:37:04;17.00;15.00;13.60
35654;PMS1003;21773;50.010;19.972;2023-04-16T07:40:08;16.00;15.00;13.00
35654;PMS1003;21773;50.010;19.972;2023-04-16T07:43:12;16.00;14.20;12.20
35654;PMS1003;21773;50.010;19.972;2023-04-16T07:46:18;20.00;17.75;15.00
35654;PMS1003;21773;50.010;19.972;2023-04-16T07:49:21;16.60;15.60;14.60
35654;PMS1003;21773;50.010;19.972;2023-04-16T07:52:25;17.00;16.50;14.50
35654;PMS1003;21773;50.010;19.972;2023-04-16T07:55:28;19.40;16.60;15.00
35654;PMS1003;21773;50.010;19.972;2023-04-16T07:58:31;19.00;17.00;15.00
35654;PMS1003;21773;50.010;19.972;2023-04-16T08:01:36;18.50;17.00;14.00
35654;PMS1003;21773;50.010;19.972;2023-04-16T08:04:39;20.00;19.00;17.00
35654;PMS1003;21773;50.010;19.972;2023-04-16T08:07:43;21.20;19.00;16.00
35654;PMS1003;21773;50.010;19.972;2023-04-16T08:10:46;18.50;15.75;14.25
35654;PMS1003;21773;50.010;19.972;2023-04-16T08:13:50;15.00;13.00;11.60
35654;PMS1003;21773;50.010;19.972;2023-04-16T08:16:55;15.00;15.00;13.00
35654;PMS1003;21773;50.010;19.972;2023-04-16T08:19:58;19.00;16.40;14.00
35654;PMS1003;21773;50.010;19.972;2023-04-16T08:23:02;18.75;17.00;15.00
35654;PMS1003;21773;50.010;19.972;2023-04-16T08:26:05;18.00;16.00;14.00
35654;PMS1003;21773;50.010;19.972;2023-04-16T08:29:08;18.00;15.00;13.00
35654;PMS1003;21773;50.010;19.972;2023-04-16T08:32:14;13.00;11.60;10.60
35654;PMS1003;21773;50.010;19.972;2023-04-16T08:35:17;15.75;13.00;11.50
35654;PMS1003;21773;50.010;19.972;2023-04-16T08:38:21;16.00;14.50;13.50
35654;PMS1003;21773;50.010;19.972;2023-04-16T08:41:24;13.00;12.00;10.00
35654;PMS1003;21773;50.010;19.972;2023-04-16T08:44:30;13.00;12.00;11.00
35654;PMS1003;21773;50.010;19.972;2023-04-16T08:47:37;15.40;13.40;11.40
35654;PMS1003;21773;50.010;19.972;2023-04-16T08:50:40;15.00;15.00;13.00
35654;PMS1003;21773;50.010;19.972;2023-04-16T08:53:47;12.50;12.00;11.00
35654;PMS1003;21773;50.010;19.972;2023-04-16T08:56:53;12.50;12.00;9.50
35654;PMS1003;21773;50.010;19.972;2023-04-16T08:59:59;12.60;11.60;11.00
35654;PMS1003;21773;50.010;19.972;2023-04-16T09:03:04;10.00;9.00;8.00
35654;PMS1003;21773;50.010;19.972;2023-04-16T09:06:08;10.50;10.00;8.00
35654;PMS1003;21773;50.010;19.972;2023-04-16T09:09:11;11.00;10.75;8.75
35654;PMS1003;21773;50.010;19.972;2023-04-16T09:12:18;12.40;11.40;10.00
35654;PMS1003;21773;50.010;19.972;2023-04-16T09:15:22;11.60;11.00;9.40
35654;PMS1003;21773;50.010;19.972;2023-04-16T09:18:27;8.60;8.60;8.00
35654;PMS1003;21773;50.010;19.972;2023-04-16T09:21:32;10.00;10.00;8.00
35654;PMS1003;21773;50.010;19.972;2023-04-16T09:24:35;9.40;8.40;7.00
35654;PMS1003;21773;50.010;19.972;2023-04-16T09:27:39;10.00;10.00;9.00
35654;PMS1003;21773;50.010;19.972;2023-04-16T09:30:43;10.00;10.00;8.00
35654;PMS1003;21773;50.010;19.972;2023-04-16T09:34:01;10.00;9.00;8.00
35654;PMS1003;21773;50.010;19.972;2023-04-16T09:37:14;9.00;8.00;7.00
35654;PMS1003;21773;50.010;19.972;2023-04-16T09:40:18;9.00;9.00;7.20
35654;PMS1003;21773;50.010;19.972;2023-04-16T09:43:26;9.25;8.25;7.25
35654;PMS1003;21773;50.010;19.972;2023-04-16T09:46:29;9.00;8.40;8.00
35654;PMS1003;21773;50.010;19.972;2023-04-16T09:49:36;6.60;4.60;4.60
35654;PMS1003;21773;50.010;19.972;2023-04-16T09:52:44;9.00;8.00;8.00
35654;PMS1003;21773;50.010;19.972;2023-04-16T09:55:51;5.00;5.00;4.00
35654;PMS1003;21773;50.010;19.972;2023-04-16T09:58:55;4.00;3.00;3.00
35654;PMS1003;21773;50.010;19.972;2023-04-16T10:01:59;4.00;4.00;3.40
35654;PMS1003;21773;50.010;19.972;2023-04-16T10:05:18;5.00;5.00;5.00
35654;PMS1003;21773;50.010;19.972;2023-04-16T10:08:24;3.60;3.60;3.00
35654;PMS1003;21773;50.010;19.972;2023-04-16T10:11:30;5.60;5.60;5.00
35654;PMS1003;21773;50.010;19.972;2023-04-16T10:14:33;4.00;4.00;3.60
35654;PMS1003;21773;50.010;19.972;2023-04-16T10:17:37;3.00;2.00;2.00
35654;PMS1003;21773;50.010;19.972;2023-04-16T10:20:42;4.00;3.50;3.00
35654;PMS1003;21773;50.010;19.972;2023-04-16T10:23:46;6.00;5.00;5.00
35654;PMS1003;21773;50.010;19.972;2023-04-16T10:26:51;5.00;5.00;4.00
35654;PMS1003;21773;50.010;19.972;2023-04-16T10:29:54;4.00;4.00;3.60
35654;PMS1003;21773;50.010;19.972;2023-04-16T10:32:58;7.25;7.00;6.25
35654;PMS1003;21773;50.010;19.972;2023-04-16T10:36:09;7.00;7.00;6.00
35654;PMS1003;21773;50.010;19.972;2023-04-16T10:39:14;6.00;6.00;6.00
35654;PMS1003;21773;50.010;19.972;2023-04-16T10:42:20;5.40;5.40;5.00
35654;PMS1003;21773;50.010;19.972;2023-04-16T10:45:36;6.00;5.00;5.00
35654;PMS1003;21773;50.010;19.972;2023-04-16T10:48:40;7.60;6.60;5.60
35654;PMS1003;21773;50.010;19.972;2023-04-16T10:51:53;6.00;5.00;4.00
35654;PMS1003;21773;50.010;19.972;2023-04-16T10:54:57;6.00;5.00;5.00
35654;PMS1003;21773;50.010;19.972;2023-04-16T10:58:01;5.00;5.00;5.00
35654;PMS1003;21773;50.010;19.972;2023-04-16T11:01:31;7.00;7.00;6.40
35654;PMS1003;21773;50.010;19.972;2023-04-16T11:04:37;8.00;7.00;5.60
35654;PMS1003;21773;50.010;19.972;2023-04-16T11:07:45;7.00;7.00;7.00
35654;PMS1003;21773;50.010;19.972;2023-04-16T11:10:50;7.00;6.00;5.00
35654;PMS1003;21773;50.010;19.972;2023-04-16T11:13:54;6.00;6.00;4.60
35654;PMS1003;21773;50.010;19.972;2023-04-16T11:17:01;6.40;6.40;6.00
35654;PMS1003;21773;50.010;19.972;2023-04-16T11:20:05;5.00;4.20;4.20
35654;PMS1003;21773;50.010;19.972;2023-04-16T11:23:22;6.50;5.50;5.00
35654;PMS1003;21773;50.010;19.972;2023-04-16T11:26:25;5.00;5.00;5.00
35654;PMS1003;21773;50.010;19.972;2023-04-16T11:29:31;5.00;5.00;4.00
35654;PMS1003;21773;50.010;19.972;2023-04-16T11:32:35;5.00;5.00;4.00
35654;PMS1003;21773;50.010;19.972;2023-04-16T11:35:40;6.40;6.00;5.00
35654;PMS1003;21773;50.010;19.972;2023-04-16T11:38:45;4.00;4.00;4.00
35654;PMS1003;21773;50.010;19.972;2023-04-16T11:41:50;4.00;4.00;4.00
35654;PMS1003;21773;50.010;19.972;2023-04-16T11:44:54;5.00;5.00;4.00
35654;PMS1003;21773;50.010;19.972;2023-04-16T11:47:58;5.00;4.00;3.50
35654;PMS1003;21773;50.010;19.972;2023-04-16T11:51:01;5.00;5.00;5.00
35654;PMS1003;21773;50.010;19.972;2023-04-16T11:54:06;5.00;5.00;4.40
35654;PMS1003;21773;50.010;19.972;2023-04-16T11:57:12;4.00;4.00;3.40
35654;PMS1003;21773;50.010;19.972;2023-04-16T12:00:17;5.00;5.00;4.00
35654;PMS1003;21773;50.010;19.972;2023-04-16T12:03:36;4.00;4.00;4.00
35654;PMS1003;21773;50.010;19.972;2023-04-16T12:06:40;3.60;3.00;3.00
35654;PMS1003;21773;50.010;19.972;2023-04-16T12:10:08;5.00;4.00;3.00
35654;PMS1003;21773;50.010;19.972;2023-04-16T12:13:11;5.00;5.00;4.00
35654;PMS1003;21773;50.010;19.972;2023-04-16T12:16:17;4.00;4.00;4.00
35654;PMS1003;21773;50.010;19.972;2023-04-16T12:19:22;5.00;5.00;4.50
35654;PMS1003;21773;50.010;19.972;2023-04-16T12:22:27;4.20;4.20;3.80
35654;PMS1003;21773;50.010;19.972;2023-04-16T12:25:33;4.00;3.80;3.40
35654;PMS1003;21773;50.010;19.972;2023-04-16T12:28:36;4.20;4.00;4.00
35654;PMS1003;21773;50.010;19.972;2023-04-16T12:31:40;6.60;5.60;5.00
35654;PMS1003;21773;50.010;19.972;2023-04-16T12:34:48;5.00;5.00;4.00
35654;PMS1003;21773;50.010;19.972;2023-04-16T12:37:52;2.20;2.20;2.00
35654;PMS1003;21773;50.010;19.972;2023-04-16T12:40:58;5.00;4.60;4.00
35654;PMS1003;21773;50.010;19.972;2023-04-16T12:44:03;3.60;3.00;2.60
35654;PMS1003;21773;50.010;19.972;2023-04-16T12:47:09;4.40;4.00;4.00
35654;PMS1003;21773;50.010;19.972;2023-04-16T12:50:13;4.00;4.00;4.00
35654;PMS1003;21773;50.010;19.972;2023-04-16T12:53:16;4.00;4.00;4.00
35654;PMS1003;21773;50.010;19.972;2023-04-16T12:56:21;5.00;4.00;3.25
35654;PMS1003;21773;50.010;19.972;2023-04-16T12:59:24;6.00;5.00;5.00
35654;PMS1003;21773;50.010;19.972;2023-04-16T13:02:27;6.00;6.00;5.40
35654;PMS1003;21773;50.010;19.972;2023-04-16T13:05:31;4.00;3.80;3.00
35654;PMS1003;21773;50.010;19.972;2023-04-16T13:08:34;5.00;5.00;4.00
35654;PMS1003;21773;50.010;19.972;2023-04-16T13:11:39;5.00;5.00;5.00
35654;PMS1003;21773;50.010;19.972;2023-04-16T13:14:43;9.60;8.40;8.00
35654;PMS1003;21773;50.010;19.972;2023-04-16T13:17:46;7.25;6.50;6.00
35654;PMS1003;21773;50.010;19.972;2023-04-16T13:20:49;5.60;5.60;5.40
35654;PMS1003;21773;50.010;19.972;2023-04-16T13:23:53;6.80;6.80;6.00
35654;PMS1003;21773;50.010;19.972;2023-04-16T13:26:57;3.50;3.50;3.00
35654;PMS1003;21773;50.010;19.972;2023-04-16T13:30:01;4.75;4.75;4.00
35654;PMS1003;21773;50.010;19.972;2023-04-16T13:33:05;5.40;5.40;5.00
35654;PMS1003;21773;50.010;19.972;2023-04-16T13:36:08;5.40;5.00;4.00
35654;PMS1003;21773;50.010;19.972;2023-04-16T13:39:11;3.00;3.00;3.00
35654;PMS1003;21773;50.010;19.972;2023-04-16T13:42:16;4.80;4.80;4.00
35654;PMS1003;21773;50.010;19.972;2023-04-16T13:45:19;6.00;5.00;4.40
35654;PMS1003;21773;50.010;19.972;2023-04-16T13:48:22;5.00;5.00;4.00
35654;PMS1003;21773;50.010;19.972;2023-04-16T13:51:27;4.80;4.00;4.00
35654;PMS1003;21773;50.010;19.972;2023-04-16T13:54:33;6.00;5.00;4.00
35654;PMS1003;21773;50.010;19.972;2023-04-16T13:57:37;3.00;3.00;2.60
35654;PMS1003;21773;50.010;19.972;2023-04-16T14:00:41;5.00;5.00;4.60
35654;PMS1003;21773;50.010;19.972;2023-04-16T14:03:45;6.40;5.80;5.80
35654;PMS1003;21773;50.010;19.972;2023-04-16T14:06:48;3.40;3.40;3.00
35654;PMS1003;21773;50.010;19.972;2023-04-16T14:09:52;5.00;5.00;4.00
35654;PMS1003;21773;50.010;19.972;2023-04-16T14:12:56;5.00;4.50;4.00
35654;PMS1003;21773;50.010;19.972;2023-04-16T14:16:00;7.00;7.00;6.00
35654;PMS1003;21773;50.010;19.972;2023-04-16T14:19:04;5.00;4.20;4.20
35654;PMS1003;21773;50.010;19.972;2023-04-16T14:22:07;4.00;4.00;3.00
35654;PMS1003;21773;50.010;19.972;2023-04-16T14:25:10;5.25;5.25;5.00
35654;PMS1003;21773;50.010;19.972;2023-04-16T14:28:15;6.00;6.00;5.00
35654;PMS1003;21773;50.010;19.972;2023-04-16T14:31:19;6.00;5.60;5.40
35654;PMS1003;21773;50.010;19.972;2023-04-16T14:34:22;3.60;3.60;3.00
35654;PMS1003;21773;50.010;19.972;2023-04-16T14:37:25;5.00;5.00;4.00
35654;PMS1003;21773;50.010;19.972;2023-04-16T14:40:29;4.00;4.00;3.00
35654;PMS1003;21773;50.010;19.972;2023-04-16T14:43:33;3.00;3.00;2.60
35654;PMS1003;21773;50.010;19.972;2023-04-16T14:46:39;4.00;4.00;4.00
35654;PMS1003;21773;50.010;19.972;2023-04-16T14:49:43;4.20;3.20;3.20
35654;PMS1003;21773;50.010;19.972;2023-04-16T14:52:46;5.00;5.00;4.00
35654;PMS1003;21773;50.010;19.972;2023-04-16T14:55:50;7.00;6.40;6.00
35654;PMS1003;21773;50.010;19.972;2023-04-16T14:58:55;5.00;5.00;4.20
35654;PMS1003;21773;50.010;19.972;2023-04-16T15:01:59;6.00;6.00;5.00
35654;PMS1003;21773;50.010;19.972;2023-04-16T15:05:02;6.00;5.80;5.20
35654;PMS1003;21773;50.010;19.972;2023-04-16T15:08:08;6.40;6.00;6.00
35654;PMS1003;21773;50.010;19.972;2023-04-16T15:11:11;7.00;7.00;7.00
35654;PMS1003;21773;50.010;19.972;2023-04-16T15:14:16;6.00;6.00;5.00
35654;PMS1003;21773;50.010;19.972;2023-04-16T15:17:20;6.00;5.60;5.00
35654;PMS1003;21773;50.010;19.972;2023-04-16T15:20:23;6.00;6.00;5.50
35654;PMS1003;21773;50.010;19.972;2023-04-16T15:23:27;6.00;6.00;5.20
35654;PMS1003;21773;50.010;19.972;2023-04-16T15:26:39;6.00;6.00;5.00
35654;PMS1003;21773;50.010;19.972;2023-04-16T15:29:43;7.00;6.00;6.00
35654;PMS1003;21773;50.010;19.972;2023-04-16T15:32:48;6.00;5.00;5.00
35654;PMS1003;21773;50.010;19.972;2023-04-16T15:35:52;4.60;4.60;4.00
35654;PMS1003;21773;50.010;19.972;2023-04-16T15:38:56;7.00;6.00;5.00
35654;PMS1003;21773;50.010;19.972;2023-04-16T15:41:59;4.00;3.67;3.67
35654;PMS1003;21773;50.010;19.972;2023-04-16T15:45:07;6.00;6.00;5.80
35654;PMS1003;21773;50.010;19.972;2023-04-16T15:48:11;5.80;5.00;5.00
35654;PMS1003;21773;50.010;19.972;2023-04-16T15:51:15;7.00;7.00;6.50
35654;PMS1003;21773;50.010;19.972;2023-04-16T15:54:18;4.50;4.00;4.00
35654;PMS1003;21773;50.010;19.972;2023-04-16T15:57:22;5.00;4.60;4.00
35654;PMS1003;21773;50.010;19.972;2023-04-16T16:00:26;6.00;5.75;5.75
35654;PMS1003;21773;50.010;19.972;2023-04-16T16:03:29;8.00;7.00;6.00
35654;PMS1003;21773;50.010;19.972;2023-04-16T16:06:35;7.40;7.00;7.00
35654;PMS1003;21773;50.010;19.972;2023-04-16T16:09:39;8.00;8.00;7.80
35654;PMS1003;21773;50.010;19.972;2023-04-16T16:12:42;8.75;8.00;7.00
35654;PMS1003;21773;50.010;19.972;2023-04-16T16:15:48;6.40;6.40;6.40
35654;PMS1003;21773;50.010;19.972;2023-04-16T16:18:52;6.75;6.00;5.75
35654;PMS1003;21773;50.010;19.972;2023-04-16T16:21:56;9.20;8.80;8.00
35654;PMS1003;21773;50.010;19.972;2023-04-16T16:24:59;7.00;7.00;6.00
35654;PMS1003;21773;50.010;19.972;2023-04-16T16:28:03;9.00;8.00;6.60
35654;PMS1003;21773;50.010;19.972;2023-04-16T16:31:08;10.00;10.00;9.50
35654;PMS1003;21773;50.010;19.972;2023-04-16T16:34:13;6.40;6.40;6.00
35654;PMS1003;21773;50.010;19.972;2023-04-16T16:37:21;10.00;8.60;8.00
35654;PMS1003;21773;50.010;19.972;2023-04-16T16:40:25;12.00;10.00;9.00
35654;PMS1003;21773;50.010;19.972;2023-04-16T16:43:28;8.60;8.60;8.00
35654;PMS1003;21773;50.010;19.972;2023-04-16T16:46:33;9.00;9.00;8.00
35654;PMS1003;21773;50.010;19.972;2023-04-16T16:49:37;7.00;6.00;6.00
35654;PMS1003;21773;50.010;19.972;2023-04-16T16:52:40;9.40;9.00;8.40
35654;PMS1003;21773;50.010;19.972;2023-04-16T16:55:43;8.00;7.00;7.00
35654;PMS1003;21773;50.010;19.972;2023-04-16T16:58:47;9.00;9.00;8.00
35654;PMS1003;21773;50.010;19.972;2023-04-16T17:01:51;10.00;10.00;9.00
35654;PMS1003;21773;50.010;19.972;2023-04-16T17:04:55;9.00;8.60;8.00
35654;PMS1003;21773;50.010;19.972;2023-04-16T17:07:59;11.00;10.40;9.40
35654;PMS1003;21773;50.010;19.972;2023-04-16T17:11:03;10.00;10.00;9.00
35654;PMS1003;21773;50.010;19.972;2023-04-16T17:14:06;11.00;10.00;9.60
35654;PMS1003;21773;50.010;19.972;2023-04-16T17:17:11;9.00;8.60;7.60
35654;PMS1003;21773;50.010;19.972;2023-04-16T17:20:14;12.00;12.00;10.40
35654;PMS1003;21773;50.010;19.972;2023-04-16T17:23:18;11.00;10.40;9.00